sensor_id;sensor_type;location;lat;lon;timestamp;temperature;humidity
5588;DHT22;2816;49.778;9.986;2023-04-24T00:02:06;12.60;99.90
5588;DHT22;2816;49.778;9.986;2023-04-24T00:04:38;12.50;99.90
5588;DHT22;2816;49.778;9.986;2023-04-24T00:07:05;12.50;99.90
5588;DHT22;2816;49.778;9.986;2023-04-24T00:09:32;12.40;99.90
5588;DHT22;2816;49.778;9.986;2023-04-24T00:11:59;12.50;99.90
5588;DHT22;2816;49.778;9.986;2023-04-24T00:14:28;12.40;99.90
5588;DHT22;2816;49.778;9.986;2023-04-24T00:16:55;12.20;99.90
5588;DHT22;2816;49.778;9.986;2023-04-24T00:19:22;12.30;99.90
5588;DHT22;2816;49.778;9.986;2023-04-24T00:21:50;12.40;99.90
5588;DHT22;2816;49.778;9.986;2023-04-24T00:24:17;12.40;99.90
5588;DHT22;2816;49.778;9.986;2023-04-24T00:26:44;12.40;99.90
5588;DHT22;2816;49.778;9.986;2023-04-24T00:29:11;12.40;99.90
5588;DHT22;2816;49.778;9.986;2023-04-24T00:31:38;12.40;99.90
5588;DHT22;2816;49.778;9.986;2023-04-24T00:34:05;12.60;99.90
5588;DHT22;2816;49.778;9.986;2023-04-24T00:36:32;12.60;99.90
5588;DHT22;2816;49.778;9.986;2023-04-24T00:39:00;12.50;99.90
5588;DHT22;2816;49.778;9.986;2023-04-24T00:41:28;12.40;99.90
5588;DHT22;2816;49.778;9.986;2023-04-24T00:43:54;12.40;99.90
5588;DHT22;2816;49.778;9.986;2023-04-24T00:46:22;12.10;99.90
5588;DHT22;2816;49.778;9.986;2023-04-24T00:48:49;12.20;99.90
5588;DHT22;2816;49.778;9.986;2023-04-24T00:51:16;12.30;99.90
5588;DHT22;2816;49.778;9.986;2023-04-24T00:53:43;12.30;99.90
5588;DHT22;2816;49.778;9.986;2023-04-24T00:56:11;12.40;99.90
5588;DHT22;2816;49.778;9.986;2023-04-24T00:58:38;12.40;99.90
5588;DHT22;2816;49.778;9.986;2023-04-24T01:01:07;12.20;99.90
5588;DHT22;2816;49.778;9.986;2023-04-24T01:03:34;12.30;99.90
5588;DHT22;2816;49.778;9.986;2023-04-24T01:06:04;12.40;99.90
5588;DHT22;2816;49.778;9.986;2023-04-24T01:08:32;12.50;99.90
5588;DHT22;2816;49.778;9.986;2023-04-24T01:11:01;12.50;99.90
5588;DHT22;2816;49.778;9.986;2023-04-24T01:13:31;12.40;99.90
5588;DHT22;2816;49.778;9.986;2023-04-24T01:15:58;12.30;99.90
5588;DHT22;2816;49.778;9.986;2023-04-24T01:18:25;12.40;99.90
5588;DHT22;2816;49.778;9.986;2023-04-24T01:20:54;12.40;99.90
5588;DHT22;2816;49.778;9.986;2023-04-24T01:23:25;12.30;99.90
5588;DHT22;2816;49.778;9.986;2023-04-24T01:25:52;12.40;99.90
5588;DHT22;2816;49.778;9.986;2023-04-24T01:28:19;12.20;99.90
5588;DHT22;2816;49.778;9.986;2023-04-24T01:30:46;12.10;99.90
5588;DHT22;2816;49.778;9.986;2023-04-24T01:33:13;12.10;99.90
5588;DHT22;2816;49.778;9.986;2023-04-24T01:35:40;12.10;99.90
5588;DHT22;2816;49.778;9.986;2023-04-24T01:38:07;12.20;99.90
5588;DHT22;2816;49.778;9.986;2023-04-24T01:40:36;12.30;99.90
5588;DHT22;2816;49.778;9.986;2023-04-24T01:43:03;12.30;99.90
5588;DHT22;2816;49.778;9.986;2023-04-24T01:45:30;12.30;99.90
5588;DHT22;2816;49.778;9.986;2023-04-24T01:47:57;12.40;99.90
5588;DHT22;2816;49.778;9.986;2023-04-24T01:50:24;12.40;99.90
5588;DHT22;2816;49.778;9.986;2023-04-24T01:52:51;12.40;99.90
5588;DHT22;2816;49.778;9.986;2023-04-24T01:55:18;12.40;99.90
5588;DHT22;2816;49.778;9.986;2023-04-24T01:57:46;12.40;99.90
5588;DHT22;2816;49.778;9.986;2023-04-24T02:00:13;12.40;99.90
5588;DHT22;2816;49.778;9.986;2023-04-24T02:02:40;12.30;99.90
5588;DHT22;2816;49.778;9.986;2023-04-24T02:05:08;12.30;99.90
5588;DHT22;2816;49.778;9.986;2023-04-24T02:07:36;12.30;99.90
5588;DHT22;2816;49.778;9.986;2023-04-24T02:10:04;12.20;99.90
5588;DHT22;2816;49.778;9.986;2023-04-24T02:12:31;12.30;99.90
5588;DHT22;2816;49.778;9.986;2023-04-24T02:14:59;12.30;99.90
5588;DHT22;2816;49.778;9.986;2023-04-24T02:17:26;12.10;99.90
5588;DHT22;2816;49.778;9.986;2023-04-24T02:19:53;12.20;99.90
5588;DHT22;2816;49.778;9.986;2023-04-24T02:22:20;12.30;99.90
5588;DHT22;2816;49.778;9.986;2023-04-24T02:24:47;12.30;99.90
5588;DHT22;2816;49.778;9.986;2023-04-24T02:27:14;12.30;99.90
5588;DHT22;2816;49.778;9.986;2023-04-24T02:29:41;12.30;99.90
5588;DHT22;2816;49.778;9.986;2023-04-24T02:32:09;12.30;99.90
5588;DHT22;2816;49.778;9.986;2023-04-24T02:34:37;12.10;99.90
5588;DHT22;2816;49.778;9.986;2023-04-24T02:37:04;12.20;99.90
5588;DHT22;2816;49.778;9.986;2023-04-24T02:39:31;12.20;99.90
5588;DHT22;2816;49.778;9.986;2023-04-24T02:41:58;12.10;99.90
5588;DHT22;2816;49.778;9.986;2023-04-24T02:44:25;12.10;99.90
5588;DHT22;2816;49.778;9.986;2023-04-24T02:46:52;12.20;99.90
5588;DHT22;2816;49.778;9.986;2023-04-24T02:49:20;12.10;99.90
5588;DHT22;2816;49.778;9.986;2023-04-24T02:51:47;12.10;99.90
5588;DHT22;2816;49.778;9.986;2023-04-24T02:54:14;12.10;99.90
5588;DHT22;2816;49.778;9.986;2023-04-24T02:56:41;12.10;99.90
5588;DHT22;2816;49.778;9.986;2023-04-24T02:59:08;12.10;99.90
5588;DHT22;2816;49.778;9.986;2023-04-24T03:01:35;12.10;99.90
5588;DHT22;2816;49.778;9.986;2023-04-24T03:04:02;12.10;99.90
5588;DHT22;2816;49.778;9.986;2023-04-24T03:06:31;12.10;99.90
5588;DHT22;2816;49.778;9.986;2023-04-24T03:08:58;12.10;99.90
5588;DHT22;2816;49.778;9.986;2023-04-24T03:11:25;12.10;99.90
5588;DHT22;2816;49.778;9.986;2023-04-24T03:13:52;12.10;99.90
5588;DHT22;2816;49.778;9.986;2023-04-24T03:16:19;12.00;99.90
5588;DHT22;2816;49.778;9.986;2023-04-24T03:18:46;12.10;99.90
5588;DHT22;2816;49.778;9.986;2023-04-24T03:21:12;12.00;99.90
5588;DHT22;2816;49.778;9.986;2023-04-24T03:23:41;11.90;99.90
5588;DHT22;2816;49.778;9.986;2023-04-24T03:26:08;11.80;99.90
5588;DHT22;2816;49.778;9.986;2023-04-24T03:28:35;11.70;99.90
5588;DHT22;2816;49.778;9.986;2023-04-24T03:31:02;11.70;99.90
5588;DHT22;2816;49.778;9.986;2023-04-24T03:33:29;11.70;99.90
5588;DHT22;2816;49.778;9.986;2023-04-24T03:35:56;11.60;99.90
5588;DHT22;2816;49.778;9.986;2023-04-24T03:38:23;11.60;99.90
5588;DHT22;2816;49.778;9.986;2023-04-24T03:40:51;11.60;99.90
5588;DHT22;2816;49.778;9.986;2023-04-24T03:43:18;11.70;99.90
5588;DHT22;2816;49.778;9.986;2023-04-24T03:45:45;11.70;99.90
5588;DHT22;2816;49.778;9.986;2023-04-24T03:48:12;11.80;99.90
5588;DHT22;2816;49.778;9.986;2023-04-24T03:50:39;11.90;99.90
5588;DHT22;2816;49.778;9.986;2023-04-24T03:53:06;11.90;99.90
5588;DHT22;2816;49.778;9.986;2023-04-24T03:55:33;12.00;99.90
5588;DHT22;2816;49.778;9.986;2023-04-24T03:58:01;12.00;99.90
5588;DHT22;2816;49.778;9.986;2023-04-24T04:00:28;12.00;99.90
5588;DHT22;2816;49.778;9.986;2023-04-24T04:02:58;11.90;99.90
5588;DHT22;2816;49.778;9.986;2023-04-24T04:05:25;11.80;99.90
5588;DHT22;2816;49.778;9.986;2023-04-24T04:07:52;11.70;99.90
5588;DHT22;2816;49.778;9.986;2023-04-24T04:10:19;11.70;99.90
5588;DHT22;2816;49.778;9.986;2023-04-24T04:12:46;11.60;99.90
5588;DHT22;2816;49.778;9.986;2023-04-24T04:15:15;11.60;99.90
5588;DHT22;2816;49.778;9.986;2023-04-24T04:17:41;11.50;99.90
5588;DHT22;2816;49.778;9.986;2023-04-24T04:20:09;11.50;99.90
5588;DHT22;2816;49.778;9.986;2023-04-24T04:22:36;11.60;99.90
5588;DHT22;2816;49.778;9.986;2023-04-24T04:25:04;11.50;99.90
5588;DHT22;2816;49.778;9.986;2023-04-24T04:27:31;11.40;99.90
5588;DHT22;2816;49.778;9.986;2023-04-24T04:29:58;11.40;99.90
5588;DHT22;2816;49.778;9.986;2023-04-24T04:32:28;11.20;99.90
5588;DHT22;2816;49.778;9.986;2023-04-24T04:34:55;11.20;99.90
5588;DHT22;2816;49.778;9.986;2023-04-24T04:37:22;11.10;99.90
5588;DHT22;2816;49.778;9.986;2023-04-24T04:39:48;11.20;99.90
5588;DHT22;2816;49.778;9.986;2023-04-24T04:42:15;11.20;99.90
5588;DHT22;2816;49.778;9.986;2023-04-24T04:44:42;11.30;99.90
5588;DHT22;2816;49.778;9.986;2023-04-24T04:47:10;11.40;99.90
5588;DHT22;2816;49.778;9.986;2023-04-24T04:49:38;11.40;99.90
5588;DHT22;2816;49.778;9.986;2023-04-24T04:52:06;11.50;99.90
5588;DHT22;2816;49.778;9.986;2023-04-24T04:54:33;11.50;99.90
5588;DHT22;2816;49.778;9.986;2023-04-24T04:57:00;11.40;99.90
5588;DHT22;2816;49.778;9.986;2023-04-24T04:59:27;11.30;99.90
5588;DHT22;2816;49.778;9.986;2023-04-24T05:01:54;10.90;99.90
5588;DHT22;2816;49.778;9.986;2023-04-24T05:04:21;10.90;99.90
5588;DHT22;2816;49.778;9.986;2023-04-24T05:06:49;10.90;99.90
5588;DHT22;2816;49.778;9.986;2023-04-24T05:09:16;10.80;99.90
5588;DHT22;2816;49.778;9.986;2023-04-24T05:11:43;10.70;99.90
5588;DHT22;2816;49.778;9.986;2023-04-24T05:14:10;10.80;99.90
5588;DHT22;2816;49.778;9.986;2023-04-24T05:16:38;10.90;99.90
5588;DHT22;2816;49.778;9.986;2023-04-24T05:19:05;10.70;99.90
5588;DHT22;2816;49.778;9.986;2023-04-24T05:21:32;10.70;99.90
5588;DHT22;2816;49.778;9.986;2023-04-24T05:24:00;10.60;99.90
5588;DHT22;2816;49.778;9.986;2023-04-24T05:26:27;10.60;99.90
5588;DHT22;2816;49.778;9.986;2023-04-24T05:28:54;10.60;99.90
5588;DHT22;2816;49.778;9.986;2023-04-24T05:31:21;10.60;99.90
5588;DHT22;2816;49.778;9.986;2023-04-24T05:33:48;10.70;99.90
5588;DHT22;2816;49.778;9.986;2023-04-24T05:36:15;10.90;99.90
5588;DHT22;2816;49.778;9.986;2023-04-24T05:38:42;10.80;99.90
5588;DHT22;2816;49.778;9.986;2023-04-24T05:41:10;10.90;99.90
5588;DHT22;2816;49.778;9.986;2023-04-24T05:43:37;10.90;99.90
5588;DHT22;2816;49.778;9.986;2023-04-24T05:46:04;10.60;99.90
5588;DHT22;2816;49.778;9.986;2023-04-24T05:48:31;10.60;99.90
5588;DHT22;2816;49.778;9.986;2023-04-24T05:50:58;10.70;99.90
5588;DHT22;2816;49.778;9.986;2023-04-24T05:53:25;10.70;99.90
5588;DHT22;2816;49.778;9.986;2023-04-24T05:55:52;10.90;99.90
5588;DHT22;2816;49.778;9.986;2023-04-24T05:58:20;10.70;99.90
5588;DHT22;2816;49.778;9.986;2023-04-24T06:00:47;10.60;99.90
5588;DHT22;2816;49.778;9.986;2023-04-24T06:03:15;10.70;99.90
5588;DHT22;2816;49.778;9.986;2023-04-24T06:05:42;10.50;99.90
5588;DHT22;2816;49.778;9.986;2023-04-24T06:08:09;10.30;99.90
5588;DHT22;2816;49.778;9.986;2023-04-24T06:10:37;10.50;99.90
5588;DHT22;2816;49.778;9.986;2023-04-24T06:13:03;10.70;99.90
5588;DHT22;2816;49.778;9.986;2023-04-24T06:15:32;10.60;99.90
5588;DHT22;2816;49.778;9.986;2023-04-24T06:17:59;10.60;99.90
5588;DHT22;2816;49.778;9.986;2023-04-24T06:20:26;10.70;99.90
5588;DHT22;2816;49.778;9.986;2023-04-24T06:22:53;10.60;99.90
5588;DHT22;2816;49.778;9.986;2023-04-24T06:25:20;10.60;99.90
5588;DHT22;2816;49.778;9.986;2023-04-24T06:27:47;10.70;99.90
5588;DHT22;2816;49.778;9.986;2023-04-24T06:30:14;10.70;99.90
5588;DHT22;2816;49.778;9.986;2023-04-24T06:32:42;10.50;99.90
5588;DHT22;2816;49.778;9.986;2023-04-24T06:35:09;10.80;99.90
5588;DHT22;2816;49.778;9.986;2023-04-24T06:37:38;10.90;99.90
5588;DHT22;2816;49.778;9.986;2023-04-24T06:40:06;10.90;99.90
5588;DHT22;2816;49.778;9.986;2023-04-24T06:42:33;10.90;99.90
5588;DHT22;2816;49.778;9.986;2023-04-24T06:45:01;10.60;99.90
5588;DHT22;2816;49.778;9.986;2023-04-24T06:47:29;10.70;99.90
5588;DHT22;2816;49.778;9.986;2023-04-24T06:49:57;10.70;99.90
5588;DHT22;2816;49.778;9.986;2023-04-24T06:52:24;10.70;99.90
5588;DHT22;2816;49.778;9.986;2023-04-24T06:54:51;10.60;99.90
5588;DHT22;2816;49.778;9.986;2023-04-24T06:57:18;10.60;99.90
5588;DHT22;2816;49.778;9.986;2023-04-24T06:59:46;10.70;99.90
5588;DHT22;2816;49.778;9.986;2023-04-24T07:02:13;10.70;99.90
5588;DHT22;2816;49.778;9.986;2023-04-24T07:04:40;10.70;99.90
5588;DHT22;2816;49.778;9.986;2023-04-24T07:07:08;10.70;99.90
5588;DHT22;2816;49.778;9.986;2023-04-24T07:09:38;10.60;99.90
5588;DHT22;2816;49.778;9.986;2023-04-24T07:12:07;10.50;99.90
5588;DHT22;2816;49.778;9.986;2023-04-24T07:14:35;10.90;99.90
5588;DHT22;2816;49.778;9.986;2023-04-24T07:17:03;10.90;99.90
5588;DHT22;2816;49.778;9.986;2023-04-24T07:19:30;11.00;99.90
5588;DHT22;2816;49.778;9.986;2023-04-24T07:21:57;11.00;99.90
5588;DHT22;2816;49.778;9.986;2023-04-24T07:24:25;11.00;99.90
5588;DHT22;2816;49.778;9.986;2023-04-24T07:26:53;10.90;99.90
5588;DHT22;2816;49.778;9.986;2023-04-24T07:29:20;11.00;99.90
5588;DHT22;2816;49.778;9.986;2023-04-24T07:31:47;11.10;99.90
5588;DHT22;2816;49.778;9.986;2023-04-24T07:34:14;11.20;99.90
5588;DHT22;2816;49.778;9.986;2023-04-24T07:36:41;11.20;99.90
5588;DHT22;2816;49.778;9.986;2023-04-24T07:39:08;11.30;99.90
5588;DHT22;2816;49.778;9.986;2023-04-24T07:41:36;11.50;99.90
5588;DHT22;2816;49.778;9.986;2023-04-24T07:44:03;11.60;99.90
5588;DHT22;2816;49.778;9.986;2023-04-24T07:46:30;11.50;99.90
5588;DHT22;2816;49.778;9.986;2023-04-24T07:48:57;11.40;99.90
5588;DHT22;2816;49.778;9.986;2023-04-24T07:51:26;11.50;99.90
5588;DHT22;2816;49.778;9.986;2023-04-24T07:53:53;11.70;99.90
5588;DHT22;2816;49.778;9.986;2023-04-24T07:56:21;11.60;99.90
5588;DHT22;2816;49.778;9.986;2023-04-24T07:58:49;11.70;99.90
5588;DHT22;2816;49.778;9.986;2023-04-24T08:01:16;11.70;99.90
5588;DHT22;2816;49.778;9.986;2023-04-24T08:03:43;11.70;99.90
5588;DHT22;2816;49.778;9.986;2023-04-24T08:06:10;11.60;99.90
5588;DHT22;2816;49.778;9.986;2023-04-24T08:08:37;11.70;99.90
5588;DHT22;2816;49.778;9.986;2023-04-24T08:11:04;11.80;99.90
5588;DHT22;2816;49.778;9.986;2023-04-24T08:13:31;11.80;99.90
5588;DHT22;2816;49.778;9.986;2023-04-24T08:15:59;11.70;99.90
5588;DHT22;2816;49.778;9.986;2023-04-24T08:18:26;11.70;99.90
5588;DHT22;2816;49.778;9.986;2023-04-24T08:20:53;11.60;99.90
5588;DHT22;2816;49.778;9.986;2023-04-24T08:23:20;11.40;99.90
5588;DHT22;2816;49.778;9.986;2023-04-24T08:25:47;11.50;99.90
5588;DHT22;2816;49.778;9.986;2023-04-24T08:28:15;11.40;99.90
5588;DHT22;2816;49.778;9.986;2023-04-24T08:30:45;11.60;99.90
5588;DHT22;2816;49.778;9.986;2023-04-24T08:33:14;11.60;99.90
5588;DHT22;2816;49.778;9.986;2023-04-24T08:35:41;11.50;99.90
5588;DHT22;2816;49.778;9.986;2023-04-24T08:38:07;11.50;99.90
5588;DHT22;2816;49.778;9.986;2023-04-24T08:40:35;11.40;99.90
5588;DHT22;2816;49.778;9.986;2023-04-24T08:43:03;11.30;99.90
5588;DHT22;2816;49.778;9.986;2023-04-24T08:45:30;11.50;99.90
5588;DHT22;2816;49.778;9.986;2023-04-24T08:47:59;11.40;99.90
5588;DHT22;2816;49.778;9.986;2023-04-24T08:50:29;11.40;99.90
5588;DHT22;2816;49.778;9.986;2023-04-24T08:52:56;11.30;99.90
5588;DHT22;2816;49.778;9.986;2023-04-24T08:55:24;11.20;99.90
5588;DHT22;2816;49.778;9.986;2023-04-24T08:57:52;11.20;99.90
5588;DHT22;2816;49.778;9.986;2023-04-24T09:00:20;11.10;99.90
5588;DHT22;2816;49.778;9.986;2023-04-24T09:02:49;10.90;99.90
5588;DHT22;2816;49.778;9.986;2023-04-24T09:05:17;11.10;99.90
5588;DHT22;2816;49.778;9.986;2023-04-24T09:07:49;11.30;99.90
5588;DHT22;2816;49.778;9.986;2023-04-24T09:10:16;11.00;99.90
5588;DHT22;2816;49.778;9.986;2023-04-24T09:12:44;10.80;99.90
5588;DHT22;2816;49.778;9.986;2023-04-24T09:15:11;11.20;99.90
5588;DHT22;2816;49.778;9.986;2023-04-24T09:17:39;11.20;99.90
5588;DHT22;2816;49.778;9.986;2023-04-24T09:20:06;11.20;99.90
5588;DHT22;2816;49.778;9.986;2023-04-24T09:22:34;11.30;99.90
5588;DHT22;2816;49.778;9.986;2023-04-24T09:25:07;11.70;99.90
5588;DHT22;2816;49.778;9.986;2023-04-24T09:27:35;11.80;99.90
5588;DHT22;2816;49.778;9.986;2023-04-24T09:30:02;11.70;99.90
5588;DHT22;2816;49.778;9.986;2023-04-24T09:32:30;11.80;99.90
5588;DHT22;2816;49.778;9.986;2023-04-24T09:35:11;11.80;99.90
5588;DHT22;2816;49.778;9.986;2023-04-24T09:37:39;12.00;99.90
5588;DHT22;2816;49.778;9.986;2023-04-24T09:40:16;12.00;99.90
5588;DHT22;2816;49.778;9.986;2023-04-24T09:42:51;12.00;99.90
5588;DHT22;2816;49.778;9.986;2023-04-24T09:45:18;11.90;99.90
5588;DHT22;2816;49.778;9.986;2023-04-24T09:47:45;12.20;99.90
5588;DHT22;2816;49.778;9.986;2023-04-24T09:50:14;12.20;99.90
5588;DHT22;2816;49.778;9.986;2023-04-24T09:52:45;12.50;99.90
5588;DHT22;2816;49.778;9.986;2023-04-24T09:55:18;12.40;99.90
5588;DHT22;2816;49.778;9.986;2023-04-24T09:57:52;12.30;99.90
5588;DHT22;2816;49.778;9.986;2023-04-24T10:00:24;12.40;99.90
5588;DHT22;2816;49.778;9.986;2023-04-24T10:03:00;12.50;99.90
5588;DHT22;2816;49.778;9.986;2023-04-24T10:05:28;12.60;99.90
5588;DHT22;2816;49.778;9.986;2023-04-24T10:08:02;12.60;99.90
5588;DHT22;2816;49.778;9.986;2023-04-24T10:10:31;12.60;99.90
5588;DHT22;2816;49.778;9.986;2023-04-24T10:12:59;12.50;99.90
5588;DHT22;2816;49.778;9.986;2023-04-24T10:15:27;12.50;99.90
5588;DHT22;2816;49.778;9.986;2023-04-24T10:17:54;12.50;99.90
5588;DHT22;2816;49.778;9.986;2023-04-24T10:20:22;12.40;99.90
5588;DHT22;2816;49.778;9.986;2023-04-24T10:22:50;12.40;99.90
5588;DHT22;2816;49.778;9.986;2023-04-24T10:25:19;12.20;99.90
5588;DHT22;2816;49.778;9.986;2023-04-24T10:27:50;12.30;99.90
5588;DHT22;2816;49.778;9.986;2023-04-24T10:30:18;12.40;99.90
5588;DHT22;2816;49.778;9.986;2023-04-24T10:32:45;12.50;99.90
5588;DHT22;2816;49.778;9.986;2023-04-24T10:35:14;12.60;99.90
5588;DHT22;2816;49.778;9.986;2023-04-24T10:37:44;12.70;99.90
5588;DHT22;2816;49.778;9.986;2023-04-24T10:40:16;12.80;99.90
5588;DHT22;2816;49.778;9.986;2023-04-24T10:42:48;12.70;99.90
5588;DHT22;2816;49.778;9.986;2023-04-24T10:45:18;12.60;99.90
5588;DHT22;2816;49.778;9.986;2023-04-24T10:48:08;12.40;99.90
5588;DHT22;2816;49.778;9.986;2023-04-24T10:50:43;12.50;99.90
5588;DHT22;2816;49.778;9.986;2023-04-24T10:53:13;12.50;99.90
5588;DHT22;2816;49.778;9.986;2023-04-24T10:55:43;12.30;99.90
5588;DHT22;2816;49.778;9.986;2023-04-24T10:58:12;12.20;99.90
5588;DHT22;2816;49.778;9.986;2023-04-24T11:00:41;12.10;99.90
5588;DHT22;2816;49.778;9.986;2023-04-24T11:03:23;12.10;99.90
5588;DHT22;2816;49.778;9.986;2023-04-24T11:05:52;12.20;99.90
5588;DHT22;2816;49.778;9.986;2023-04-24T11:08:24;12.00;99.90
5588;DHT22;2816;49.778;9.986;2023-04-24T11:11:00;12.10;99.90
5588;DHT22;2816;49.778;9.986;2023-04-24T11:14:01;12.10;99.90
5588;DHT22;2816;49.778;9.986;2023-04-24T11:16:30;12.20;99.90
5588;DHT22;2816;49.778;9.986;2023-04-24T11:19:04;12.10;99.90
5588;DHT22;2816;49.778;9.986;2023-04-24T11:21:32;12.10;99.90
5588;DHT22;2816;49.778;9.986;2023-04-24T11:24:29;12.00;99.90
5588;DHT22;2816;49.778;9.986;2023-04-24T11:26:59;12.00;99.90
5588;DHT22;2816;49.778;9.986;2023-04-24T11:29:41;11.90;99.90
5588;DHT22;2816;49.778;9.986;2023-04-24T11:32:23;11.90;99.90
5588;DHT22;2816;49.778;9.986;2023-04-24T11:34:52;11.90;99.90
5588;DHT22;2816;49.778;9.986;2023-04-24T11:37:19;11.90;99.90
5588;DHT22;2816;49.778;9.986;2023-04-24T11:39:46;12.00;99.90
5588;DHT22;2816;49.778;9.986;2023-04-24T11:42:15;11.90;99.90
5588;DHT22;2816;49.778;9.986;2023-04-24T11:44:44;11.90;99.90
5588;DHT22;2816;49.778;9.986;2023-04-24T11:47:13;11.90;99.90
5588;DHT22;2816;49.778;9.986;2023-04-24T11:49:39;11.80;99.90
5588;DHT22;2816;49.778;9.986;2023-04-24T11:52:06;11.70;99.90
5588;DHT22;2816;49.778;9.986;2023-04-24T11:54:33;11.80;99.90
5588;DHT22;2816;49.778;9.986;2023-04-24T11:57:04;11.80;99.90
5588;DHT22;2816;49.778;9.986;2023-04-24T11:59:35;11.80;99.90
5588;DHT22;2816;49.778;9.986;2023-04-24T12:02:03;11.80;99.90
5588;DHT22;2816;49.778;9.986;2023-04-24T12:04:39;11.90;99.90
5588;DHT22;2816;49.778;9.986;2023-04-24T12:07:06;11.70;99.90
5588;DHT22;2816;49.778;9.986;2023-04-24T12:09:43;11.70;99.90
5588;DHT22;2816;49.778;9.986;2023-04-24T12:12:12;11.70;99.90
5588;DHT22;2816;49.778;9.986;2023-04-24T12:14:43;11.90;99.90
5588;DHT22;2816;49.778;9.986;2023-04-24T12:17:12;12.30;99.90
5588;DHT22;2816;49.778;9.986;2023-04-24T12:19:45;12.60;99.90
5588;DHT22;2816;49.778;9.986;2023-04-24T12:22:12;12.80;99.90
5588;DHT22;2816;49.778;9.986;2023-04-24T12:24:58;13.00;99.90
5588;DHT22;2816;49.778;9.986;2023-04-24T12:27:26;13.20;99.90
5588;DHT22;2816;49.778;9.986;2023-04-24T12:29:53;13.30;99.90
5588;DHT22;2816;49.778;9.986;2023-04-24T12:32:24;13.30;99.90
5588;DHT22;2816;49.778;9.986;2023-04-24T12:34:52;13.40;99.90
5588;DHT22;2816;49.778;9.986;2023-04-24T12:37:19;13.40;99.90
5588;DHT22;2816;49.778;9.986;2023-04-24T12:40:03;13.50;99.90
5588;DHT22;2816;49.778;9.986;2023-04-24T12:42:31;13.50;99.90
5588;DHT22;2816;49.778;9.986;2023-04-24T12:45:01;13.70;99.90
5588;DHT22;2816;49.778;9.986;2023-04-24T12:47:31;13.80;99.90
5588;DHT22;2816;49.778;9.986;2023-04-24T12:49:58;13.90;99.90
5588;DHT22;2816;49.778;9.986;2023-04-24T12:52:26;13.90;99.90
5588;DHT22;2816;49.778;9.986;2023-04-24T12:54:56;13.60;99.90
5588;DHT22;2816;49.778;9.986;2023-04-24T12:57:24;13.70;99.90
5588;DHT22;2816;49.778;9.986;2023-04-24T12:59:54;13.50;99.90
5588;DHT22;2816;49.778;9.986;2023-04-24T13:02:22;13.10;99.90
5588;DHT22;2816;49.778;9.986;2023-04-24T13:04:50;13.10;99.90
5588;DHT22;2816;49.778;9.986;2023-04-24T13:07:17;12.90;99.90
5588;DHT22;2816;49.778;9.986;2023-04-24T13:09:45;13.00;99.90
5588;DHT22;2816;49.778;9.986;2023-04-24T13:12:12;12.90;99.90
5588;DHT22;2816;49.778;9.986;2023-04-24T13:14:39;12.90;99.90
5588;DHT22;2816;49.778;9.986;2023-04-24T13:17:06;13.00;99.90
5588;DHT22;2816;49.778;9.986;2023-04-24T13:19:36;13.10;99.90
5588;DHT22;2816;49.778;9.986;2023-04-24T13:22:05;13.00;99.90
5588;DHT22;2816;49.778;9.986;2023-04-24T13:24:32;12.80;99.90
5588;DHT22;2816;49.778;9.986;2023-04-24T13:26:59;12.70;99.90
5588;DHT22;2816;49.778;9.986;2023-04-24T13:29:26;12.70;99.90
5588;DHT22;2816;49.778;9.986;2023-04-24T13:31:54;13.10;99.90
5588;DHT22;2816;49.778;9.986;2023-04-24T13:34:21;13.40;99.90
5588;DHT22;2816;49.778;9.986;2023-04-24T13:36:49;13.80;99.90
5588;DHT22;2816;49.778;9.986;2023-04-24T13:39:17;14.00;99.90
5588;DHT22;2816;49.778;9.986;2023-04-24T13:41:45;14.10;99.90
5588;DHT22;2816;49.778;9.986;2023-04-24T13:44:13;14.10;99.90
5588;DHT22;2816;49.778;9.986;2023-04-24T13:46:40;14.20;99.90
5588;DHT22;2816;49.778;9.986;2023-04-24T13:49:07;14.10;99.90
5588;DHT22;2816;49.778;9.986;2023-04-24T13:51:34;13.90;99.90
5588;DHT22;2816;49.778;9.986;2023-04-24T13:54:01;13.80;99.90
5588;DHT22;2816;49.778;9.986;2023-04-24T13:56:29;13.60;99.90
5588;DHT22;2816;49.778;9.986;2023-04-24T13:58:56;13.60;99.90
5588;DHT22;2816;49.778;9.986;2023-04-24T14:01:23;13.70;99.90
5588;DHT22;2816;49.778;9.986;2023-04-24T14:03:50;13.40;99.90
5588;DHT22;2816;49.778;9.986;2023-04-24T14:06:18;13.20;99.90
5588;DHT22;2816;49.778;9.986;2023-04-24T14:08:45;12.90;99.90
5588;DHT22;2816;49.778;9.986;2023-04-24T14:11:12;12.60;99.90
5588;DHT22;2816;49.778;9.986;2023-04-24T14:13:41;12.20;99.90
5588;DHT22;2816;49.778;9.986;2023-04-24T14:16:08;11.80;99.90
5588;DHT22;2816;49.778;9.986;2023-04-24T14:18:35;11.70;99.90
5588;DHT22;2816;49.778;9.986;2023-04-24T14:21:02;11.60;99.90
5588;DHT22;2816;49.778;9.986;2023-04-24T14:23:30;11.30;99.90
5588;DHT22;2816;49.778;9.986;2023-04-24T14:25:57;11.30;99.90
5588;DHT22;2816;49.778;9.986;2023-04-24T14:28:24;11.10;99.90
5588;DHT22;2816;49.778;9.986;2023-04-24T14:30:53;11.10;99.90
5588;DHT22;2816;49.778;9.986;2023-04-24T14:33:21;11.30;99.90
5588;DHT22;2816;49.778;9.986;2023-04-24T14:35:47;11.50;99.90
5588;DHT22;2816;49.778;9.986;2023-04-24T14:38:14;12.00;99.90
5588;DHT22;2816;49.778;9.986;2023-04-24T14:40:41;12.10;99.90
5588;DHT22;2816;49.778;9.986;2023-04-24T14:43:08;12.50;99.90
5588;DHT22;2816;49.778;9.986;2023-04-24T14:45:36;12.80;99.90
5588;DHT22;2816;49.778;9.986;2023-04-24T14:48:05;13.00;99.90
5588;DHT22;2816;49.778;9.986;2023-04-24T14:50:32;12.90;99.90
5588;DHT22;2816;49.778;9.986;2023-04-24T14:52:59;13.20;99.90
5588;DHT22;2816;49.778;9.986;2023-04-24T14:55:27;13.40;99.90
5588;DHT22;2816;49.778;9.986;2023-04-24T14:57:54;13.40;99.90
5588;DHT22;2816;49.778;9.986;2023-04-24T15:00:21;13.40;99.90
5588;DHT22;2816;49.778;9.986;2023-04-24T15:02:49;13.30;99.90
5588;DHT22;2816;49.778;9.986;2023-04-24T15:05:18;13.20;99.90
5588;DHT22;2816;49.778;9.986;2023-04-24T15:07:45;13.10;99.90
5588;DHT22;2816;49.778;9.986;2023-04-24T15:10:12;12.90;99.90
5588;DHT22;2816;49.778;9.986;2023-04-24T15:12:38;12.80;99.90
5588;DHT22;2816;49.778;9.986;2023-04-24T15:15:07;12.60;99.90
5588;DHT22;2816;49.778;9.986;2023-04-24T15:17:34;12.70;99.90
5588;DHT22;2816;49.778;9.986;2023-04-24T15:20:01;12.50;99.90
5588;DHT22;2816;49.778;9.986;2023-04-24T15:22:30;12.70;99.90
5588;DHT22;2816;49.778;9.986;2023-04-24T15:24:57;12.90;99.90
5588;DHT22;2816;49.778;9.986;2023-04-24T15:27:24;13.10;99.90
5588;DHT22;2816;49.778;9.986;2023-04-24T15:29:51;13.50;99.90
5588;DHT22;2816;49.778;9.986;2023-04-24T15:32:19;13.50;99.90
5588;DHT22;2816;49.778;9.986;2023-04-24T15:34:45;13.80;99.90
5588;DHT22;2816;49.778;9.986;2023-04-24T15:37:12;13.80;99.90
5588;DHT22;2816;49.778;9.986;2023-04-24T15:39:41;13.70;99.90
5588;DHT22;2816;49.778;9.986;2023-04-24T15:42:11;13.70;99.90
5588;DHT22;2816;49.778;9.986;2023-04-24T15:44:37;13.80;99.90
5588;DHT22;2816;49.778;9.986;2023-04-24T15:47:04;13.60;99.90
5588;DHT22;2816;49.778;9.986;2023-04-24T15:49:31;13.50;99.90
5588;DHT22;2816;49.778;9.986;2023-04-24T15:51:58;13.60;99.90
5588;DHT22;2816;49.778;9.986;2023-04-24T15:54:25;13.80;99.90
5588;DHT22;2816;49.778;9.986;2023-04-24T15:56:53;13.80;99.90
5588;DHT22;2816;49.778;9.986;2023-04-24T15:59:20;13.50;99.90
5588;DHT22;2816;49.778;9.986;2023-04-24T16:01:47;13.40;99.90
5588;DHT22;2816;49.778;9.986;2023-04-24T16:04:14;13.40;99.90
5588;DHT22;2816;49.778;9.986;2023-04-24T16:06:41;13.50;99.90
5588;DHT22;2816;49.778;9.986;2023-04-24T16:09:08;13.50;99.90